Time;durP1;ratioP1;P1;durP2;ratioP2;P2;SDS_P1;SDS_P2;PMS_P1;PMS_P2;Temp;Humidity;BMP_temperature;BMP_pressure;BME280_temperature;BME280_humidity;BME280_pressure;Samples;Min_cycle;Max_cycle;Signal;HPM_P1;HPM_P2
2022/03/25 00:00:55;;;;;;;19.17;11.63;;;10.20;57.40;;;;;;2060623;28;20038;-85
2022/03/25 00:01:57;;;;;;;20.42;12.23;;;10.20;57.60;;;;;;2050787;28;20063;-85
2022/03/25 00:02:57;;;;;;;19.10;11.40;;;10.20;57.60;;;;;;2065514;28;20125;-86
2022/03/25 00:03:58;;;;;;;20.67;12.63;;;10.10;57.70;;;;;;2070698;28;20038;-85
2022/03/25 00:04:59;;;;;;;19.52;12.35;;;10.10;57.70;;;;;;2062945;28;20041;-86
2022/03/25 00:06:00;;;;;;;20.20;11.45;;;10.10;57.80;;;;;;2055992;28;20065;-86
2022/03/25 00:07:00;;;;;;;18.15;11.60;;;10.00;57.80;;;;;;2064751;28;20034;-86
2022/03/25 00:08:02;;;;;;;19.17;11.77;;;10.00;57.90;;;;;;2063345;28;20511;-86
2022/03/25 00:09:02;;;;;;;20.83;12.35;;;10.00;57.90;;;;;;2053403;28;20035;-86
2022/03/25 00:10:04;;;;;;;18.17;11.57;;;10.00;58.00;;;;;;2047339;28;20437;-86
2022/03/25 00:11:05;;;;;;;19.23;12.02;;;10.00;58.00;;;;;;2051155;28;20482;-86
2022/03/25 00:12:06;;;;;;;20.45;11.68;;;10.00;58.10;;;;;;2057319;28;20059;-85
2022/03/25 00:13:07;;;;;;;20.48;12.23;;;9.90;58.00;;;;;;2056881;28;20125;-86
2022/03/25 00:14:09;;;;;;;20.70;12.15;;;9.90;58.10;;;;;;2057394;28;20030;-86
2022/03/25 00:15:10;;;;;;;20.80;12.65;;;9.90;58.10;;;;;;2068826;28;20026;-86
2022/03/25 00:16:11;;;;;;;18.80;11.75;;;9.90;58.20;;;;;;2057005;28;20046;-86
2022/03/25 00:17:12;;;;;;;19.15;12.05;;;9.80;58.10;;;;;;2065569;28;20026;-86
2022/03/25 00:18:13;;;;;;;18.00;11.40;;;9.80;58.20;;;;;;2070981;28;20121;-85
2022/03/25 00:19:14;;;;;;;18.65;11.70;;;9.80;58.30;;;;;;2065559;28;20026;-86
2022/03/25 00:20:14;;;;;;;19.92;11.50;;;9.80;58.40;;;;;;2055755;28;20019;-86
2022/03/25 00:21:15;;;;;;;19.63;12.48;;;9.70;58.40;;;;;;2045769;28;20035;-86
2022/03/25 00:22:15;;;;;;;18.27;11.55;;;9.70;58.50;;;;;;2061034;28;20077;-86
2022/03/25 00:23:16;;;;;;;19.42;11.75;;;9.70;58.60;;;;;;2056755;28;20035;-86
2022/03/25 00:24:17;;;;;;;19.33;12.95;;;9.70;58.70;;;;;;2063969;28;20029;-86
2022/03/25 00:25:17;;;;;;;19.38;12.65;;;9.60;58.70;;;;;;2063528;28;20054;-86
2022/03/25 00:26:18;;;;;;;19.45;11.73;;;9.60;58.80;;;;;;2062712;28;20430;-86
2022/03/25 00:27:19;;;;;;;19.23;11.77;;;9.60;59.00;;;;;;2064092;28;20488;-86
2022/03/25 00:28:20;;;;;;;19.42;12.02;;;9.50;59.00;;;;;;2068144;28;20076;-86
2022/03/25 00:29:21;;;;;;;21.10;12.27;;;9.60;59.10;;;;;;2073214;28;20550;-86
2022/03/25 00:30:21;;;;;;;19.65;12.40;;;9.50;59.10;;;;;;2072979;28;20030;-86
2022/03/25 00:31:22;;;;;;;19.42;11.98;;;9.50;59.20;;;;;;2073425;28;20397;-86
2022/03/25 00:32:23;;;;;;;21.25;12.32;;;9.50;59.20;;;;;;2073348;28;20062;-86
2022/03/25 00:33:24;;;;;;;19.52;12.13;;;9.50;59.20;;;;;;2072756;28;20508;-86
2022/03/25 00:34:24;;;;;;;21.10;12.90;;;9.40;59.20;;;;;;2073726;28;20022;-85
2022/03/25 00:35:26;;;;;;;19.33;11.82;;;9.40;59.20;;;;;;2073997;28;20021;-86
2022/03/25 00:36:27;;;;;;;19.90;11.93;;;9.40;59.10;;;;;;2064694;28;20030;-85
2022/03/25 00:37:27;;;;;;;21.63;12.48;;;9.40;59.20;;;;;;2063464;28;20033;-86
2022/03/25 00:38:28;;;;;;;19.85;13.05;;;9.40;59.20;;;;;;2071414;28;20165;-86
2022/03/25 00:39:29;;;;;;;20.58;12.68;;;9.30;59.20;;;;;;2072649;28;20548;-86
2022/03/25 00:40:29;;;;;;;21.52;13.55;;;9.30;59.30;;;;;;2064301;28;20121;-86
2022/03/25 00:41:32;;;;;;;23.25;14.15;;;9.30;59.20;;;;;;2063830;28;20532;-86
2022/03/25 00:42:33;;;;;;;20.20;12.88;;;9.30;59.30;;;;;;2070106;28;20523;-86
2022/03/25 00:43:34;;;;;;;22.95;13.30;;;9.20;59.30;;;;;;2071760;28;20061;-85
2022/03/25 00:44:35;;;;;;;21.15;13.38;;;9.20;59.30;;;;;;2073341;28;20181;-86
2022/03/25 00:45:35;;;;;;;23.63;14.20;;;9.20;59.40;;;;;;2072947;28;20413;-86
2022/03/25 00:46:36;;;;;;;22.35;13.48;;;9.20;59.40;;;;;;2074095;28;20492;-86
2022/03/25 00:47:37;;;;;;;22.83;14.13;;;9.10;59.40;;;;;;2070826;28;20041;-85
2022/03/25 00:48:39;;;;;;;24.83;15.48;;;9.10;59.50;;;;;;2073404;28;20069;-86
2022/03/25 00:49:40;;;;;;;26.05;15.70;;;9.10;59.60;;;;;;2072000;28;20022;-86
2022/03/25 00:50:41;;;;;;;23.70;14.82;;;9.10;59.60;;;;;;2063650;28;20089;-86
2022/03/25 00:51:42;;;;;;;25.95;15.75;;;9.10;59.70;;;;;;2057043;28;20517;-86
2022/03/25 00:52:43;;;;;;;27.02;15.98;;;9.00;59.70;;;;;;2072615;28;20038;-86
2022/03/25 00:53:45;;;;;;;26.05;15.50;;;9.00;59.70;;;;;;2071291;28;20038;-86
2022/03/25 00:54:46;;;;;;;24.92;15.80;;;9.00;59.80;;;;;;2064203;28;20038;-86
2022/03/25 00:55:46;;;;;;;24.52;15.40;;;8.90;59.80;;;;;;2063318;28;20030;-86
2022/03/25 00:56:47;;;;;;;26.92;16.70;;;8.90;59.80;;;;;;2059294;28;20177;-86
2022/03/25 00:57:48;;;;;;;26.17;16.70;;;8.90;59.90;;;;;;2065285;28;20034;-86
2022/03/25 00:58:49;;;;;;;29.65;17.60;;;8.90;60.00;;;;;;2060922;28;20077;-86
2022/03/25 00:59:50;;;;;;;28.55;17.55;;;8.90;60.00;;;;;;2073321;28;20042;-86
2022/03/25 01:00:50;;;;;;;27.75;17.50;;;8.80;60.00;;;;;;2071911;28;20040;-86
2022/03/25 01:01:51;;;;;;;31.00;19.48;;;8.80;60.10;;;;;;2069912;28;20026;-86
2022/03/25 01:02:52;;;;;;;29.33;18.52;;;8.90;60.20;;;;;;2073384;28;20125;-86
2022/03/25 01:03:52;;;;;;;28.88;17.88;;;8.80;60.10;;;;;;2070692;28;20022;-86
2022/03/25 01:04:53;;;;;;;27.55;17.27;;;8.80;60.20;;;;;;2073013;28;20034;-86
2022/03/25 01:05:53;;;;;;;27.08;16.67;;;8.80;60.30;;;;;;2072323;28;20033;-86
2022/03/25 01:06:55;;;;;;;27.23;17.30;;;8.80;60.30;;;;;;2056312;28;20031;-86
2022/03/25 01:07:56;;;;;;;26.48;17.30;;;8.80;60.30;;;;;;2065079;28;20374;-86
2022/03/25 01:08:56;;;;;;;25.75;16.85;;;8.80;60.40;;;;;;2072037;28;20183;-86
2022/03/25 01:09:57;;;;;;;28.13;17.52;;;8.80;61.10;;;;;;2056278;28;20078;-86
2022/03/25 01:10:58;;;;;;;29.65;17.92;;;8.80;60.50;;;;;;2063911;28;20046;-86
2022/03/25 01:11:58;;;;;;;28.35;17.05;;;8.80;60.50;;;;;;2072638;28;20376;-85
2022/03/25 01:12:59;;;;;;;29.55;18.50;;;8.80;60.50;;;;;;2064774;28;20583;-86
2022/03/25 01:14:00;;;;;;;27.33;17.00;;;8.80;60.50;;;;;;2061572;28;20469;-86
2022/03/25 01:15:01;;;;;;;28.10;17.42;;;8.80;60.60;;;;;;2041222;28;20027;-86
2022/03/25 01:16:04;;;;;;;30.67;18.45;;;8.80;60.60;;;;;;2038463;28;20047;-86
2022/03/25 01:17:05;;;;;;;27.55;17.27;;;8.70;60.70;;;;;;2064980;28;20027;-86
2022/03/25 01:18:05;;;;;;;29.58;18.08;;;8.80;60.80;;;;;;2062478;28;20030;-86
2022/03/25 01:19:06;;;;;;;29.85;17.83;;;8.70;60.80;;;;;;2072055;28;20059;-86
2022/03/25 01:20:09;;;;;;;28.67;17.77;;;8.70;60.90;;;;;;2072450;28;20113;-86
2022/03/25 01:21:10;;;;;;;31.00;19.10;;;8.70;60.90;;;;;;2064740;28;20036;-86
2022/03/25 01:22:10;;;;;;;28.90;17.42;;;8.70;61.00;;;;;;2056920;28;20481;-86
2022/03/25 01:23:12;;;;;;;29.35;18.42;;;8.70;61.10;;;;;;2064079;28;20135;-86
2022/03/25 01:24:13;;;;;;;30.25;17.73;;;8.70;61.00;;;;;;2073206;28;20030;-86
2022/03/25 01:25:14;;;;;;;27.25;17.58;;;8.70;61.10;;;;;;2064014;28;20030;-86
2022/03/25 01:26:14;;;;;;;27.55;18.17;;;8.70;61.10;;;;;;2064754;28;20030;-86
2022/03/25 01:27:16;;;;;;;29.98;18.60;;;8.70;61.20;;;;;;2071927;28;20088;-86
2022/03/25 01:28:17;;;;;;;30.23;18.40;;;8.70;61.20;;;;;;2070162;28;20022;-86
2022/03/25 01:29:18;;;;;;;30.65;18.88;;;8.70;61.20;;;;;;2072682;28;20492;-86
2022/03/25 01:30:18;;;;;;;28.33;17.95;;;8.60;61.30;;;;;;2056000;28;20031;-86
2022/03/25 01:31:19;;;;;;;29.58;17.58;;;8.60;61.40;;;;;;2064722;28;20121;-86
2022/03/25 01:32:20;;;;;;;29.52;18.63;;;8.60;61.40;;;;;;2071199;28;20014;-85
2022/03/25 01:33:23;;;;;;;28.83;18.23;;;8.60;61.50;;;;;;2072376;28;20488;-86
2022/03/25 01:34:23;;;;;;;29.45;18.10;;;8.60;61.50;;;;;;2065105;28;20027;-86
2022/03/25 01:35:24;;;;;;;27.67;17.55;;;8.60;61.50;;;;;;2063898;28;20406;-86
2022/03/25 01:36:25;;;;;;;27.35;17.52;;;8.60;61.50;;;;;;2072973;28;20029;-86
2022/03/25 01:37:29;;;;;;;28.10;18.02;;;8.60;61.60;;;;;;2069627;28;20045;-86
2022/03/25 01:38:29;;;;;;;28.42;18.02;;;8.60;61.60;;;;;;2063568;28;20432;-86
2022/03/25 01:39:30;;;;;;;28.77;18.08;;;8.60;61.60;;;;;;2057227;28;20114;-86
2022/03/25 01:40:31;;;;;;;27.33;17.60;;;8.60;61.60;;;;;;2064778;28;20038;-86
2022/03/25 01:41:32;;;;;;;30.13;18.65;;;8.50;61.60;;;;;;2065559;28;20037;-86
2022/03/25 01:42:36;;;;;;;28.85;18.00;;;8.50;61.70;;;;;;2062200;28;20081;-86
2022/03/25 01:43:37;;;;;;;26.13;16.63;;;8.50;61.80;;;;;;2050091;28;20023;-86
2022/03/25 01:44:38;;;;;;;27.13;17.45;;;8.50;61.90;;;;;;2064610;28;20041;-86
2022/03/25 01:45:39;;;;;;;29.92;18.25;;;8.50;62.00;;;;;;2079070;28;20033;-85
2022/03/25 01:46:39;;;;;;;27.02;17.25;;;8.50;62.00;;;;;;2063451;28;20201;-86
2022/03/25 01:47:42;;;;;;;29.02;18.33;;;8.50;62.10;;;;;;2065147;28;20675;-86
2022/03/25 01:48:43;;;;;;;27.48;17.02;;;8.50;62.20;;;;;;2067918;28;20070;-86
2022/03/25 01:49:43;;;;;;;25.98;17.38;;;8.50;62.20;;;;;;2064769;28;20521;-86
2022/03/25 01:50:46;;;;;;;25.65;16.17;;;8.40;62.20;;;;;;2069579;28;20488;-86
2022/03/25 01:51:52;;;;;;;27.90;16.88;;;8.40;62.30;;;;;;2072614;28;20022;-86
2022/03/25 01:52:53;;;;;;;25.95;16.80;;;8.40;62.40;;;;;;2071805;28;20023;-86
2022/03/25 01:53:59;;;;;;;25.23;15.85;;;8.40;62.40;;;;;;2066724;28;20121;-86
2022/03/25 01:55:15;;;;;;;28.88;17.30;;;8.40;62.50;;;;;;2063817;28;20023;-86
2022/03/25 01:56:22;;;;;;;25.48;16.42;;;8.30;62.50;;;;;;2072014;28;20025;-86
2022/03/25 01:57:25;;;;;;;25.02;15.88;;;8.30;62.60;;;;;;2070408;28;20412;-85
2022/03/25 01:58:30;;;;;;;25.33;16.17;;;8.20;62.60;;;;;;2072390;28;20530;-86
2022/03/25 01:59:32;;;;;;;27.90;16.98;;;8.20;62.70;;;;;;2081048;28;20484;-86
2022/03/25 02:00:33;;;;;;;24.98;16.67;;;8.20;63.30;;;;;;2077884;28;20491;-86
2022/03/25 02:01:34;;;;;;;24.88;16.35;;;8.20;62.80;;;;;;2071869;28;20057;-85
2022/03/25 02:02:37;;;;;;;27.77;16.63;;;8.20;62.90;;;;;;2058864;28;20088;-85
2022/03/25 02:03:38;;;;;;;29.33;16.90;;;8.10;62.90;;;;;;2058401;28;20427;-86
2022/03/25 02:04:38;;;;;;;26.58;18.02;;;8.10;63.00;;;;;;2066618;28;20076;-86
2022/03/25 02:05:40;;;;;;;26.98;16.83;;;8.10;63.10;;;;;;2072502;28;20028;-86
2022/03/25 02:06:41;;;;;;;26.15;15.75;;;8.10;63.10;;;;;;2071581;28;20034;-86
2022/03/25 02:07:42;;;;;;;27.00;16.30;;;8.00;63.10;;;;;;2050679;28;20138;-86
2022/03/25 02:08:43;;;;;;;27.60;17.45;;;8.10;63.20;;;;;;2047898;28;20488;-86
2022/03/25 02:09:43;;;;;;;26.55;16.73;;;8.00;63.30;;;;;;2063632;28;20129;-86
2022/03/25 02:10:45;;;;;;;28.58;17.48;;;8.00;63.30;;;;;;2061429;28;20125;-86
2022/03/25 02:11:45;;;;;;;27.17;17.33;;;8.00;63.40;;;;;;2055945;28;20033;-85
2022/03/25 02:12:46;;;;;;;29.40;18.10;;;8.00;63.40;;;;;;2044842;28;20044;-85
2022/03/25 02:13:47;;;;;;;27.25;17.70;;;8.00;63.50;;;;;;2048486;28;20031;-85
2022/03/25 02:14:47;;;;;;;27.85;17.70;;;8.00;63.50;;;;;;2072221;28;20037;-86
2022/03/25 02:15:49;;;;;;;27.73;17.65;;;8.00;63.50;;;;;;2072417;28;20034;-86
2022/03/25 02:16:50;;;;;;;25.95;17.02;;;8.00;63.50;;;;;;2063438;28;20034;-86
2022/03/25 02:17:51;;;;;;;29.25;18.42;;;7.90;63.50;;;;;;2072276;28;20407;-86
2022/03/25 02:18:52;;;;;;;30.10;18.83;;;8.00;63.60;;;;;;2072208;28;20045;-86
2022/03/25 02:19:52;;;;;;;30.42;19.48;;;7.90;63.50;;;;;;2071987;28;20026;-85
2022/03/25 02:20:53;;;;;;;28.77;17.73;;;8.00;63.60;;;;;;2061436;28;20034;-86
2022/03/25 02:21:53;;;;;;;28.95;19.50;;;8.00;63.70;;;;;;2069405;28;20030;-86
2022/03/25 02:22:54;;;;;;;32.75;20.00;;;8.00;63.70;;;;;;2072264;28;20066;-86
2022/03/25 02:23:55;;;;;;;27.95;18.58;;;8.00;63.80;;;;;;2072017;28;20026;-86
2022/03/25 02:24:55;;;;;;;29.33;18.92;;;7.90;63.70;;;;;;2073056;28;20037;-86
2022/03/25 02:25:57;;;;;;;29.63;19.50;;;7.90;63.80;;;;;;2062364;28;20037;-86
2022/03/25 02:26:58;;;;;;;29.88;19.20;;;7.90;63.90;;;;;;2047431;28;20027;-85
2022/03/25 02:28:01;;;;;;;32.33;20.67;;;7.90;64.00;;;;;;2063563;28;20030;-86
2022/03/25 02:29:05;;;;;;;34.50;21.27;;;7.90;64.10;;;;;;2071925;28;20412;-86
2022/03/25 02:30:07;;;;;;;33.83;21.30;;;7.90;64.80;;;;;;2068220;28;20022;-85
2022/03/25 02:31:08;;;;;;;30.50;20.50;;;7.90;64.20;;;;;;2063910;28;20493;-86
2022/03/25 02:32:10;;;;;;;34.85;21.80;;;7.90;64.30;;;;;;2056275;28;20033;-86
2022/03/25 02:33:12;;;;;;;36.65;23.48;;;7.80;64.30;;;;;;2071749;28;20022;-86
2022/03/25 02:34:12;;;;;;;32.53;21.65;;;7.80;64.40;;;;;;2065252;28;20030;-86
2022/03/25 02:35:13;;;;;;;31.38;20.45;;;7.80;64.50;;;;;;2064913;28;20023;-85
2022/03/25 02:36:14;;;;;;;33.10;21.10;;;7.80;64.50;;;;;;2061674;28;20030;-85
2022/03/25 02:37:14;;;;;;;34.53;22.15;;;7.80;64.60;;;;;;2055560;28;20027;-86
2022/03/25 02:38:23;;;;;;;32.00;21.17;;;7.80;64.60;;;;;;2064528;28;20053;-86
2022/03/25 02:39:23;;;;;;;33.90;20.75;;;7.80;64.70;;;;;;2064983;28;20365;-85
2022/03/25 02:40:24;;;;;;;35.38;22.40;;;7.80;65.40;;;;;;2064322;28;20050;-85
2022/03/25 02:41:25;;;;;;;34.38;22.17;;;7.80;65.40;;;;;;2056372;28;20564;-86
2022/03/25 02:42:25;;;;;;;33.70;21.55;;;7.80;64.80;;;;;;2045494;29;20490;-85
2022/03/25 02:43:26;;;;;;;31.58;20.70;;;7.80;64.80;;;;;;2040594;29;20090;-86
2022/03/25 02:44:27;;;;;;;32.60;21.45;;;7.80;64.90;;;;;;2046183;28;20035;-86
2022/03/25 02:45:28;;;;;;;32.53;21.15;;;7.80;64.90;;;;;;2050641;28;20027;-86
2022/03/25 02:46:29;;;;;;;32.30;20.60;;;7.80;65.00;;;;;;2070262;28;20069;-85
2022/03/25 02:47:29;;;;;;;33.20;21.42;;;7.80;65.00;;;;;;2073575;28;20018;-86
2022/03/25 02:48:30;;;;;;;33.10;20.70;;;7.80;65.10;;;;;;2066841;28;20034;-86
2022/03/25 02:49:31;;;;;;;32.22;20.88;;;7.80;65.10;;;;;;2062315;28;20036;-86
2022/03/25 02:50:32;;;;;;;34.33;22.00;;;7.80;65.20;;;;;;2049354;28;20054;-85
2022/03/25 02:51:33;;;;;;;33.55;22.58;;;7.80;65.20;;;;;;2066211;28;20058;-86
2022/03/25 02:52:33;;;;;;;32.20;21.20;;;7.70;65.30;;;;;;2065038;28;20428;-86
2022/03/25 02:53:34;;;;;;;34.20;22.45;;;7.80;65.30;;;;;;2072618;28;20139;-86
2022/03/25 02:54:35;;;;;;;32.33;22.25;;;7.80;65.40;;;;;;2063898;28;20030;-86
2022/03/25 02:55:35;;;;;;;35.83;22.88;;;7.70;65.40;;;;;;2067832;28;20085;-86
2022/03/25 02:56:36;;;;;;;32.50;22.45;;;7.70;65.40;;;;;;2070407;28;20084;-86
2022/03/25 02:57:37;;;;;;;34.42;22.00;;;7.80;65.60;;;;;;2070751;28;20114;-85
2022/03/25 02:58:38;;;;;;;33.15;21.83;;;7.70;65.50;;;;;;2072377;28;20026;-86
2022/03/25 02:59:39;;;;;;;33.08;21.17;;;7.70;65.60;;;;;;2070649;28;20022;-86
2022/03/25 03:00:42;;;;;;;29.98;20.25;;;7.70;65.60;;;;;;2074718;28;20034;-85
2022/03/25 03:01:42;;;;;;;33.75;21.48;;;7.80;65.60;;;;;;2073227;28;20029;-86
2022/03/25 03:02:43;;;;;;;32.45;20.73;;;7.70;65.60;;;;;;2067066;28;20050;-85
2022/03/25 03:03:45;;;;;;;30.80;20.80;;;7.80;65.70;;;;;;2062559;28;20034;-85
2022/03/25 03:04:45;;;;;;;30.75;20.50;;;7.80;65.70;;;;;;2074059;28;20030;-85
2022/03/25 03:05:46;;;;;;;31.35;20.45;;;7.80;65.60;;;;;;2071586;28;20029;-86
2022/03/25 03:06:46;;;;;;;30.60;20.92;;;7.80;65.60;;;;;;2073088;28;20034;-85
2022/03/25 03:07:48;;;;;;;30.60;19.48;;;7.80;65.60;;;;;;2069492;28;20077;-85
2022/03/25 03:08:49;;;;;;;33.08;20.52;;;7.80;65.70;;;;;;2074777;28;20025;-86
2022/03/25 03:09:50;;;;;;;33.40;20.73;;;7.80;65.70;;;;;;2064708;28;20026;-86
2022/03/25 03:10:51;;;;;;;30.50;20.08;;;7.80;65.70;;;;;;2057902;28;20401;-86
2022/03/25 03:11:52;;;;;;;31.45;20.15;;;7.80;66.30;;;;;;2071838;28;20037;-86
2022/03/25 03:12:53;;;;;;;29.33;19.70;;;7.90;65.80;;;;;;2075279;28;20038;-86
2022/03/25 03:13:53;;;;;;;30.88;20.02;;;7.90;65.70;;;;;;2075018;28;20100;-85
2022/03/25 03:14:55;;;;;;;32.38;21.35;;;7.80;65.70;;;;;;2074059;28;20090;-86
2022/03/25 03:15:56;;;;;;;34.75;21.40;;;7.90;65.80;;;;;;2057499;28;20039;-85
2022/03/25 03:16:57;;;;;;;32.38;21.40;;;7.90;65.80;;;;;;2056395;28;20150;-86
2022/03/25 03:17:58;;;;;;;32.13;21.33;;;7.80;65.80;;;;;;2057431;28;20070;-86
2022/03/25 03:18:58;;;;;;;30.20;19.75;;;7.90;65.90;;;;;;2057451;28;20110;-86
2022/03/25 03:20:00;;;;;;;30.25;20.25;;;7.90;65.90;;;;;;2062863;28;20066;-86
2022/03/25 03:21:00;;;;;;;33.88;22.30;;;7.90;66.00;;;;;;2065733;28;20041;-86
2022/03/25 03:22:01;;;;;;;36.95;22.83;;;7.80;65.90;;;;;;2065828;28;20073;-86
2022/03/25 03:23:02;;;;;;;34.28;22.30;;;7.80;66.00;;;;;;2073754;28;20096;-86
2022/03/25 03:24:03;;;;;;;33.30;22.50;;;7.90;66.10;;;;;;2074020;28;20069;-85
2022/03/25 03:25:04;;;;;;;34.38;23.02;;;7.80;66.10;;;;;;2073825;28;20030;-86
2022/03/25 03:26:05;;;;;;;38.03;24.15;;;7.80;66.10;;;;;;2065652;28;20026;-86
2022/03/25 03:27:06;;;;;;;33.22;22.90;;;7.90;66.30;;;;;;2064999;28;20042;-86
2022/03/25 03:28:07;;;;;;;36.85;25.15;;;7.80;66.30;;;;;;2073892;28;20085;-85
2022/03/25 03:29:08;;;;;;;38.70;25.17;;;7.80;67.00;;;;;;2056712;28;20042;-86
2022/03/25 03:30:11;;;;;;;35.95;24.00;;;7.80;66.40;;;;;;2049434;28;20065;-86
2022/03/25 03:31:12;;;;;;;39.33;25.13;;;7.80;66.50;;;;;;2065109;28;20026;-86
2022/03/25 03:32:12;;;;;;;35.80;23.80;;;7.80;66.50;;;;;;2073647;28;20034;-86
2022/03/25 03:33:13;;;;;;;38.05;23.88;;;7.80;66.50;;;;;;2066595;28;20056;-86
2022/03/25 03:34:14;;;;;;;35.03;23.85;;;7.80;66.60;;;;;;2072374;28;20065;-86
2022/03/25 03:35:14;;;;;;;36.05;22.92;;;7.80;66.70;;;;;;2065901;28;20034;-86
2022/03/25 03:36:15;;;;;;;35.25;23.45;;;7.80;66.70;;;;;;2066704;28;20058;-86
2022/03/25 03:37:16;;;;;;;33.05;23.13;;;7.80;66.80;;;;;;2060317;28;20505;-86
2022/03/25 03:38:16;;;;;;;35.20;22.80;;;7.80;66.80;;;;;;2073173;28;20068;-86
2022/03/25 03:39:17;;;;;;;31.63;22.63;;;7.80;66.90;;;;;;2072585;28;20496;-86
2022/03/25 03:40:18;;;;;;;35.08;22.98;;;7.80;67.60;;;;;;2066402;28;20031;-85
2022/03/25 03:41:18;;;;;;;31.73;22.30;;;7.80;67.10;;;;;;2069899;28;20388;-86
2022/03/25 03:42:19;;;;;;;37.05;24.45;;;7.70;67.20;;;;;;2073654;28;20045;-86
2022/03/25 03:43:20;;;;;;;33.83;22.33;;;7.70;67.30;;;;;;2068863;28;20851;-86
2022/03/25 03:44:23;;;;;;;32.85;22.67;;;7.70;67.40;;;;;;2074549;28;20088;-86
2022/03/25 03:45:23;;;;;;;35.33;23.38;;;7.70;67.50;;;;;;2074406;28;20032;-86
2022/03/25 03:46:24;;;;;;;34.72;22.67;;;7.60;67.60;;;;;;2071679;28;20026;-86
2022/03/25 03:47:25;;;;;;;33.20;21.80;;;7.60;67.70;;;;;;2057682;28;20027;-86
2022/03/25 03:48:25;;;;;;;36.97;23.63;;;7.60;67.80;;;;;;2065207;28;20058;-86
2022/03/25 03:49:26;;;;;;;36.22;24.02;;;7.60;67.90;;;;;;2073153;28;20065;-85
2022/03/25 03:50:26;;;;;;;34.35;22.77;;;7.60;68.00;;;;;;2062312;28;20109;-85
2022/03/25 03:51:27;;;;;;;34.67;23.70;;;7.60;68.00;;;;;;2055804;28;20402;-86
2022/03/25 03:52:28;;;;;;;35.88;24.17;;;7.60;68.10;;;;;;2056910;28;20469;-86
2022/03/25 03:53:28;;;;;;;36.22;24.45;;;7.60;68.10;;;;;;2064109;28;20026;-86
2022/03/25 03:54:29;;;;;;;36.83;24.77;;;7.60;68.20;;;;;;2073451;28;20034;-86
2022/03/25 03:55:30;;;;;;;39.53;25.45;;;7.50;68.10;;;;;;2065636;28;20023;-86
2022/03/25 03:56:31;;;;;;;36.22;24.33;;;7.60;68.20;;;;;;2065623;28;20378;-86
2022/03/25 03:57:31;;;;;;;41.58;27.00;;;7.50;68.20;;;;;;2058214;28;20027;-86
2022/03/25 03:58:32;;;;;;;38.55;24.80;;;7.50;68.20;;;;;;2061252;28;20031;-85
2022/03/25 03:59:33;;;;;;;35.97;24.35;;;7.50;68.20;;;;;;2073928;28;20030;-86
2022/03/25 04:00:33;;;;;;;35.88;24.88;;;7.50;68.30;;;;;;2063873;28;20048;-86
2022/03/25 04:01:34;;;;;;;35.05;24.25;;;7.50;68.30;;;;;;2047248;28;20406;-86
2022/03/25 04:02:35;;;;;;;36.17;24.65;;;7.50;68.30;;;;;;2049469;28;20050;-86
2022/03/25 04:03:35;;;;;;;34.85;23.92;;;7.50;68.30;;;;;;2057868;28;20033;-86
2022/03/25 04:04:36;;;;;;;37.92;24.50;;;7.50;68.40;;;;;;2063996;28;20057;-84
2022/03/25 04:05:37;;;;;;;36.30;24.10;;;7.50;68.40;;;;;;2065499;28;20493;-85
2022/03/25 04:06:37;;;;;;;35.67;24.38;;;7.50;68.40;;;;;;2064901;28;20058;-86
2022/03/25 04:07:45;;;;;;;34.75;24.33;;;7.50;68.40;;;;;;2056502;28;20027;-86
2022/03/25 04:08:45;;;;;;;35.10;23.88;;;7.50;68.50;;;;;;2059990;28;20022;-86
2022/03/25 04:09:46;;;;;;;35.08;23.77;;;7.50;68.40;;;;;;2060946;28;20120;-86
2022/03/25 04:10:46;;;;;;;35.22;23.67;;;7.50;68.40;;;;;;2056104;28;20034;-85
2022/03/25 04:11:47;;;;;;;35.60;23.75;;;7.50;68.50;;;;;;2057352;28;20035;-86
2022/03/25 04:12:48;;;;;;;35.80;24.70;;;7.50;68.50;;;;;;2058962;28;20058;-86
2022/03/25 04:13:49;;;;;;;36.92;24.42;;;7.50;69.10;;;;;;2064370;28;20410;-86
2022/03/25 04:14:49;;;;;;;37.25;25.00;;;7.50;68.60;;;;;;2065455;28;20393;-86
2022/03/25 04:15:50;;;;;;;36.47;24.00;;;7.50;69.30;;;;;;2057473;28;20035;-86
2022/03/25 04:16:51;;;;;;;34.42;24.25;;;7.50;69.30;;;;;;2056203;28;20033;-85
2022/03/25 04:17:52;;;;;;;36.20;24.63;;;7.50;68.70;;;;;;2057314;28;20516;-86
2022/03/25 04:18:52;;;;;;;37.53;25.30;;;7.50;68.70;;;;;;2055662;28;20030;-86
2022/03/25 04:19:53;;;;;;;38.05;25.50;;;7.50;68.80;;;;;;2056311;28;20037;-86
2022/03/25 04:20:54;;;;;;;34.65;24.35;;;7.50;68.80;;;;;;2057133;28;20027;-86
2022/03/25 04:21:55;;;;;;;37.47;25.35;;;7.50;68.90;;;;;;2057441;28;20034;-86
2022/03/25 04:22:55;;;;;;;37.00;24.30;;;7.50;68.90;;;;;;2070408;28;20060;-85
2022/03/25 04:23:56;;;;;;;38.45;24.95;;;7.50;68.90;;;;;;2057472;28;20054;-86
2022/03/25 04:24:56;;;;;;;33.55;23.65;;;7.50;69.60;;;;;;2043664;29;20043;-86
2022/03/25 04:25:57;;;;;;;37.35;24.88;;;7.50;69.10;;;;;;2057352;28;20473;-86
2022/03/25 04:26:58;;;;;;;37.28;25.55;;;7.50;69.20;;;;;;2064123;28;20398;-85
2022/03/25 04:27:59;;;;;;;37.05;25.30;;;7.50;69.30;;;;;;2073326;28;20520;-86
2022/03/25 04:28:59;;;;;;;36.20;24.65;;;7.40;69.30;;;;;;2071348;28;20435;-84
2022/03/25 04:30:00;;;;;;;38.13;25.15;;;7.40;69.50;;;;;;2070245;28;20396;-85
2022/03/25 04:31:00;;;;;;;36.03;24.50;;;7.40;69.50;;;;;;2073631;28;20481;-86
2022/03/25 04:32:01;;;;;;;37.53;25.88;;;7.40;69.60;;;;;;2072371;28;20045;-86
2022/03/25 04:33:04;;;;;;;37.22;25.25;;;7.40;69.60;;;;;;2062024;28;21380;-85
2022/03/25 04:34:04;;;;;;;37.72;25.30;;;7.40;69.70;;;;;;2065514;28;20401;-86
2022/03/25 04:35:05;;;;;;;35.53;24.50;;;7.40;69.70;;;;;;2064001;28;20419;-86
2022/03/25 04:36:08;;;;;;;38.53;25.88;;;7.30;69.70;;;;;;2040641;28;20028;-86
2022/03/25 04:37:09;;;;;;;38.20;25.65;;;7.30;69.70;;;;;;2056597;28;20023;-86
2022/03/25 04:38:10;;;;;;;38.50;24.63;;;7.30;69.80;;;;;;2073151;28;20026;-85
2022/03/25 04:39:10;;;;;;;37.72;25.48;;;7.30;69.90;;;;;;2070014;28;20026;-85
2022/03/25 04:40:13;;;;;;;37.22;24.75;;;7.30;70.00;;;;;;2064068;28;20057;-85
2022/03/25 04:41:14;;;;;;;38.80;25.60;;;7.30;70.00;;;;;;2055085;28;20450;-86
2022/03/25 04:42:14;;;;;;;34.53;24.02;;;7.20;70.00;;;;;;2067814;28;20125;-85
2022/03/25 04:43:15;;;;;;;37.22;24.63;;;7.20;70.10;;;;;;2064123;28;20501;-85
2022/03/25 04:44:16;;;;;;;37.55;24.42;;;7.20;70.20;;;;;;2041315;29;20055;-86
2022/03/25 04:45:17;;;;;;;36.08;24.88;;;7.20;70.30;;;;;;2026927;29;20029;-86
2022/03/25 04:46:18;;;;;;;37.13;25.67;;;7.20;70.30;;;;;;2056043;28;20506;-85
2022/03/25 04:47:19;;;;;;;38.22;25.73;;;7.10;70.30;;;;;;2069694;28;20037;-86
2022/03/25 04:48:19;;;;;;;40.05;26.40;;;7.20;70.40;;;;;;2071104;28;20369;-85
2022/03/25 04:49:20;;;;;;;40.15;27.10;;;7.10;70.50;;;;;;2055000;28;20030;-85
2022/03/25 04:50:21;;;;;;;39.20;26.55;;;7.10;70.50;;;;;;2057108;28;20078;-86
2022/03/25 04:51:22;;;;;;;38.67;25.73;;;7.10;70.60;;;;;;2063911;28;20040;-86
2022/03/25 04:52:22;;;;;;;39.15;26.27;;;7.10;70.60;;;;;;2056759;28;20034;-86
2022/03/25 04:53:25;;;;;;;38.45;25.48;;;7.10;70.70;;;;;;2045595;29;20032;-86
2022/03/25 04:54:25;;;;;;;39.08;26.50;;;7.00;70.70;;;;;;2049519;28;20537;-86
2022/03/25 04:55:26;;;;;;;39.08;25.90;;;7.00;70.70;;;;;;2065346;28;20034;-86
2022/03/25 04:56:27;;;;;;;41.33;27.60;;;7.10;70.90;;;;;;2064997;28;20026;-86
2022/03/25 04:57:27;;;;;;;40.40;26.60;;;7.00;70.90;;;;;;2065660;28;20030;-86
2022/03/25 04:58:28;;;;;;;39.05;26.52;;;7.00;70.90;;;;;;2056150;28;20085;-85
2022/03/25 04:59:29;;;;;;;38.00;25.80;;;7.00;70.90;;;;;;2056447;28;20031;-86
2022/03/25 05:00:29;;;;;;;42.13;28.00;;;7.00;70.90;;;;;;2056459;28;20089;-86
2022/03/25 05:01:30;;;;;;;43.50;28.33;;;7.00;71.00;;;;;;2070060;28;20084;-85
2022/03/25 05:02:31;;;;;;;40.70;27.20;;;7.00;71.10;;;;;;2072778;28;20040;-85
2022/03/25 05:03:31;;;;;;;41.50;27.88;;;6.90;71.10;;;;;;2071761;28;20076;-86
2022/03/25 05:04:32;;;;;;;45.08;30.65;;;6.90;71.30;;;;;;2056210;28;20109;-86
2022/03/25 05:05:33;;;;;;;46.65;29.55;;;6.90;71.40;;;;;;2055947;28;20035;-85
2022/03/25 05:06:34;;;;;;;46.20;30.40;;;6.90;71.60;;;;;;2072032;28;20026;-85
2022/03/25 05:07:35;;;;;;;43.17;29.13;;;6.80;71.70;;;;;;2065761;28;20026;-85
2022/03/25 05:08:35;;;;;;;46.45;30.77;;;6.80;71.70;;;;;;2071657;28;20026;-86
2022/03/25 05:09:36;;;;;;;43.65;29.83;;;6.80;71.80;;;;;;2072346;28;20053;-86
2022/03/25 05:10:40;;;;;;;44.40;29.80;;;6.80;71.90;;;;;;2052021;28;20023;-86
2022/03/25 05:11:41;;;;;;;44.00;29.10;;;6.80;71.90;;;;;;2064937;28;20070;-86
2022/03/25 05:12:43;;;;;;;44.28;28.95;;;6.80;72.00;;;;;;2071780;28;20526;-86
2022/03/25 05:13:43;;;;;;;43.28;28.80;;;6.80;72.00;;;;;;2072822;28;20024;-85